Time;durP1;ratioP1;P1;durP2;ratioP2;P2;SDS_P1;SDS_P2;PMS_P1;PMS_P2;Temp;Humidity;BMP_temperature;BMP_pressure;BME280_temperature;BME280_humidity;BME280_pressure;Samples;Min_cycle;Max_cycle;Signal;HPM_P1;HPM_P2
2022/06/23 00:01:43;;;;;;;19.15;10.05;;;;;;;17.99;58.91;101071.50;5050360;28;20151;-53
2022/06/23 00:04:14;;;;;;;21.48;9.95;;;;;;;17.93;60.28;101074.53;5042670;28;20150;-51
2022/06/23 00:06:45;;;;;;;19.80;10.48;;;;;;;17.85;60.99;101057.84;5049640;28;20033;-53
2022/06/23 00:09:35;;;;;;;18.55;10.20;;;;;;;17.83;60.51;101058.22;5049891;28;20036;-53
2022/06/23 00:12:21;;;;;;;20.23;11.10;;;;;;;17.83;61.32;101074.16;5049873;28;20087;-53
2022/06/23 00:14:49;;;;;;;19.40;10.43;;;;;;;17.67;62.92;101058.09;5050109;28;20051;-53
2022/06/23 00:17:23;;;;;;;19.52;10.93;;;;;;;17.72;62.64;101062.63;5050005;28;20037;-54
2022/06/23 00:19:48;;;;;;;20.55;11.10;;;;;;;17.61;64.06;101068.69;5049964;28;20152;-54
2022/06/23 00:22:17;;;;;;;21.73;10.57;;;;;;;17.62;64.47;101064.72;5050058;28;20076;-54
2022/06/23 00:24:43;;;;;;;19.25;11.30;;;;;;;17.63;64.34;101062.75;5049712;28;20051;-53
2022/06/23 00:27:16;;;;;;;22.65;11.65;;;;;;;17.46;65.28;101050.63;5048417;28;20045;-53
2022/06/23 00:29:44;;;;;;;21.33;11.85;;;;;;;17.50;65.41;101049.94;5050110;28;20059;-54
2022/06/23 00:32:10;;;;;;;21.20;11.43;;;;;;;17.52;65.89;101061.59;5049739;28;20525;-53
2022/06/23 00:35:05;;;;;;;21.70;11.27;;;;;;;17.51;65.20;101054.38;5049887;28;20074;-52
2022/06/23 00:37:30;;;;;;;;;;;;;;;17.53;63.86;101061.22;5046080;28;20049;-54
2022/06/23 00:40:03;;;;;;;22.88;12.50;;;;;;;17.46;66.45;101058.22;5050142;28;19918;-54
2022/06/23 00:42:35;;;;;;;20.90;12.82;;;;;;;17.36;67.10;101045.47;5049697;28;20107;-54
2022/06/23 00:45:09;;;;;;;21.02;12.88;;;;;;;17.42;66.52;101060.06;5049819;28;20025;-56
2022/06/23 00:47:53;;;;;;;20.85;12.90;;;;;;;17.43;67.46;101061.69;5050138;28;20064;-55
2022/06/23 00:50:30;;;;;;;20.90;13.07;;;;;;;17.43;66.74;101059.69;5051087;28;20468;-55
2022/06/23 00:52:58;;;;;;;20.65;12.60;;;;;;;17.43;67.88;101059.69;5053662;28;20447;-53
2022/06/23 00:55:37;;;;;;;22.65;12.35;;;;;;;17.43;66.89;101059.69;5051810;28;20115;-52
2022/06/23 00:58:13;;;;;;;22.55;12.27;;;;;;;17.42;67.78;101057.25;5053242;28;20040;-50
2022/06/23 01:00:41;;;;;;;22.45;12.40;;;;;;;17.32;68.37;101050.16;5053537;28;20058;-55
2022/06/23 01:03:07;;;;;;;20.58;12.60;;;;;;;17.29;68.48;101050.84;5053293;28;20485;-53
2022/06/23 01:05:44;;;;;;;22.80;13.05;;;;;;;17.24;68.63;101051.06;5053563;28;20028;-52
2022/06/23 01:08:35;;;;;;;21.98;13.02;;;;;;;17.20;68.42;101045.34;5053243;28;20124;-52
2022/06/23 01:11:00;;;;;;;22.15;12.75;;;;;;;17.18;69.70;101044.06;5053350;28;20025;-50
2022/06/23 01:13:29;;;;;;;21.92;12.90;;;;;;;17.08;70.18;101051.72;5051819;28;20128;-52
2022/06/23 01:16:01;;;;;;;20.67;12.48;;;;;;;16.99;71.09;101035.06;5053291;28;20032;-51
2022/06/23 01:18:39;;;;;;;24.17;13.45;;;;;;;16.96;70.64;101032.94;5052127;28;20089;-51
2022/06/23 01:21:15;;;;;;;23.13;13.02;;;;;;;16.93;71.08;101043.97;5052098;28;20025;-51
2022/06/23 01:23:58;;;;;;;22.55;12.70;;;;;;;16.93;70.72;101035.59;5053413;28;20057;-53
2022/06/23 01:26:57;;;;;;;24.15;14.32;;;;;;;16.88;70.94;101030.22;5052839;28;20052;-51
2022/06/23 01:29:48;;;;;;;21.20;12.48;;;;;;;16.84;71.12;101028.13;5051404;28;20040;-53
2022/06/23 01:32:28;;;;;;;22.33;13.73;;;;;;;16.79;72.13;101030.31;5053143;28;20475;-55
2022/06/23 01:35:18;;;;;;;22.27;12.57;;;;;;;16.73;72.24;101012.13;5051713;28;20448;-54
2022/06/23 01:37:49;;;;;;;22.13;13.15;;;;;;;16.81;71.57;101039.97;5052102;28;20045;-54
2022/06/23 01:40:26;;;;;;;22.13;13.25;;;;;;;16.81;71.81;101034.38;5052736;28;20025;-55
2022/06/23 01:42:54;;;;;;;23.02;12.90;;;;;;;16.78;71.91;101037.06;5052469;28;20475;-55
2022/06/23 01:45:38;;;;;;;21.98;12.82;;;;;;;16.76;71.72;101034.63;5052508;28;20033;-55
2022/06/23 01:48:14;;;;;;;23.45;13.35;;;;;;;16.68;71.68;101032.69;5052175;28;20112;-54
2022/06/23 01:50:49;;;;;;;21.55;13.50;;;;;;;16.64;72.03;101026.19;5052691;28;20051;-55
2022/06/23 01:53:26;;;;;;;24.27;14.00;;;;;;;16.65;72.39;101052.97;5052339;28;20170;-55
2022/06/23 01:56:12;;;;;;;22.52;13.32;;;;;;;16.53;71.78;101034.19;5052343;28;20061;-54
2022/06/23 01:59:04;;;;;;;23.92;12.93;;;;;;;16.58;70.88;101038.75;5052364;28;20345;-51
2022/06/23 02:02:05;;;;;;;22.38;13.48;;;;;;;16.63;71.11;101046.91;5051286;28;20044;-52
2022/06/23 02:04:42;;;;;;;20.00;13.00;;;;;;;16.57;71.57;101040.69;5052328;28;20032;-54
2022/06/23 02:07:18;;;;;;;22.20;13.30;;;;;;;16.50;71.94;101041.25;5052063;28;20099;-56
2022/06/23 02:09:51;;;;;;;22.75;13.85;;;;;;;16.46;72.18;101045.91;5052237;28;20044;-55
2022/06/23 02:12:38;;;;;;;23.08;13.10;;;;;;;16.32;71.83;101018.25;5052353;28;20337;-54
2022/06/23 02:15:12;;;;;;;22.30;12.60;;;;;;;16.43;72.23;101034.59;5051938;28;20036;-53
2022/06/23 02:17:47;;;;;;;22.02;13.07;;;;;;;16.44;71.90;101030.63;5051906;28;20036;-54
2022/06/23 02:20:38;;;;;;;22.27;13.02;;;;;;;16.43;71.42;101042.97;5052388;28;20027;-54
2022/06/23 02:23:16;;;;;;;22.83;13.45;;;;;;;16.33;71.97;101024.66;5051960;28;20031;-52
2022/06/23 02:26:00;;;;;;;23.17;13.32;;;;;;;16.29;71.72;101035.69;5077105;23;20052;-56
2022/06/23 02:28:41;;;;;;;22.08;13.82;;;;;;;16.32;72.23;101040.59;5092347;28;20039;-56
2022/06/23 02:31:23;;;;;;;22.30;13.30;;;;;;;16.20;72.33;101035.72;5092323;28;20028;-54
2022/06/23 02:34:00;;;;;;;24.13;14.15;;;;;;;16.25;72.30;101040.28;5092051;28;20092;-53
2022/06/23 02:36:56;;;;;;;23.67;13.70;;;;;;;16.24;72.00;101037.84;5091993;28;20024;-53
2022/06/23 02:39:51;;;;;;;24.58;13.98;;;;;;;16.23;71.71;101039.84;5091789;28;20024;-53
2022/06/23 02:42:34;;;;;;;23.90;13.43;;;;;;;16.15;72.18;101035.16;5089892;28;20047;-54
2022/06/23 02:45:22;;;;;;;22.33;13.43;;;;;;;16.17;71.66;101032.81;5091865;28;20042;-55
2022/06/23 02:47:50;;;;;;;23.60;14.43;;;;;;;16.12;72.23;101025.47;5091648;28;20107;-53
2022/06/23 02:50:27;;;;;;;21.83;13.45;;;;;;;16.10;72.11;101025.00;5107339;28;20082;-57
2022/06/23 02:52:57;;;;;;;23.13;13.57;;;;;;;16.06;72.10;101033.22;5091461;28;20072;-54
2022/06/23 02:55:44;;;;;;;22.52;12.95;;;;;;;16.11;71.73;101025.81;5091536;28;20066;-53
2022/06/23 02:58:17;;;;;;;21.75;13.65;;;;;;;16.08;71.52;101015.31;5106994;28;20438;-56
2022/06/23 03:00:54;;;;;;;23.73;13.85;;;;;;;16.09;71.51;101017.78;5091937;28;20024;-49
2022/06/23 03:03:42;;;;;;;22.40;13.73;;;;;;;16.04;71.11;101013.22;5091496;28;20136;-54
2022/06/23 03:06:19;;;;;;;22.15;14.10;;;;;;;16.04;71.57;101018.81;5091277;28;20028;-54
2022/06/23 03:08:59;;;;;;;22.17;12.93;;;;;;;15.99;71.80;101019.00;5091462;28;20036;-56
2022/06/23 03:11:53;;;;;;;23.17;13.48;;;;;;;15.96;71.28;101008.53;5091245;28;20119;-54
2022/06/23 03:14:37;;;;;;;23.20;13.65;;;;;;;15.97;70.71;101001.75;5090869;28;20443;-54
2022/06/23 03:17:14;;;;;;;21.02;13.27;;;;;;;15.98;71.44;101005.38;5091422;28;20024;-53
2022/06/23 03:19:47;;;;;;;21.98;14.02;;;;;;;15.89;71.45;101002.66;5091586;28;20100;-55
2022/06/23 03:22:23;;;;;;;22.10;13.48;;;;;;;15.90;71.33;100995.91;5091550;28;20044;-52
2022/06/23 03:25:15;;;;;;;22.48;14.13;;;;;;;15.92;71.22;101001.97;5091525;28;20078;-56
2022/06/23 03:28:09;;;;;;;22.60;13.93;;;;;;;15.87;70.95;101003.00;5091125;28;20181;-54
2022/06/23 03:30:43;;;;;;;21.17;13.27;;;;;;;15.87;71.29;101007.78;5088099;28;20040;-50
2022/06/23 03:33:16;;;;;;;22.42;13.60;;;;;;;15.84;71.10;100995.28;5089182;28;20016;-51
2022/06/23 03:35:57;;;;;;;22.50;13.38;;;;;;;15.85;71.37;100993.34;5089287;28;20399;-54
2022/06/23 03:41:36;;;;;;;21.08;12.65;;;;;;;15.89;70.73;100997.91;5090703;28;20422;-54
2022/06/23 03:44:18;;;;;;;22.10;13.25;;;;;;;15.86;71.12;100997.75;5090181;28;20066;-50
2022/06/23 03:46:58;;;;;;;22.08;13.48;;;;;;;15.90;70.77;100998.69;5090283;28;20064;-53
2022/06/23 03:49:52;;;;;;;22.60;14.35;;;;;;;16.24;69.68;100994.03;5090169;28;20062;-53
2022/06/23 03:52:21;;;;;;;;;;;;;;;16.63;68.53;100993.81;5090835;28;20134;-54
2022/06/23 03:54:55;;;;;;;21.98;14.20;;;;;;;17.01;67.21;100992.78;5090134;28;19912;-54
2022/06/23 03:57:26;;;;;;;21.02;12.90;;;;;;;17.26;65.68;100998.41;5105982;28;20340;-52
2022/06/23 04:00:09;;;;;;;22.00;12.43;;;;;;;17.41;65.06;100999.69;5090182;28;20039;-53
2022/06/23 04:02:41;;;;;;;22.33;12.75;;;;;;;17.25;64.78;100999.56;5090233;28;20055;-52
2022/06/23 04:05:23;;;;;;;22.35;13.10;;;;;;;17.02;65.20;101005.59;5089921;28;20420;-56
2022/06/23 04:07:55;;;;;;;23.08;13.73;;;;;;;16.84;65.99;101011.34;5089336;28;20051;-55
2022/06/23 04:10:30;;;;;;;22.45;13.15;;;;;;;16.63;66.74;100999.41;5089897;28;20471;-56
2022/06/23 04:13:05;;;;;;;21.45;13.00;;;;;;;16.47;67.15;100993.66;5090613;28;20035;-55
2022/06/23 04:15:37;;;;;;;21.08;13.25;;;;;;;16.36;67.70;101001.63;5090161;28;20135;-53
2022/06/23 04:18:16;;;;;;;21.85;13.30;;;;;;;16.37;67.58;101011.66;5090427;28;20032;-54
2022/06/23 04:20:47;;;;;;;21.95;13.18;;;;;;;16.33;67.94;101007.91;5090276;28;20035;-53
2022/06/23 04:23:17;;;;;;;22.10;12.63;;;;;;;16.31;68.10;101004.63;5090216;28;20108;-52
2022/06/23 04:25:52;;;;;;;21.92;13.55;;;;;;;16.28;68.29;101013.69;5092299;28;20440;-54
2022/06/23 04:28:23;;;;;;;21.52;13.00;;;;;;;16.31;68.26;101010.22;5094261;28;20031;-55
2022/06/23 04:30:49;;;;;;;21.98;13.48;;;;;;;16.33;67.91;101011.53;5093771;28;20016;-55
2022/06/23 04:33:21;;;;;;;24.30;13.40;;;;;;;16.25;68.26;101006.00;5093635;28;20028;-55
2022/06/23 04:35:53;;;;;;;21.65;13.15;;;;;;;16.21;68.58;101003.06;5092668;28;20062;-56
2022/06/23 04:38:31;;;;;;;23.05;13.50;;;;;;;16.23;68.94;101017.50;5093937;28;20047;-55
2022/06/23 04:41:10;;;;;;;22.30;13.18;;;;;;;16.24;68.87;101016.34;5093488;28;20571;-55
2022/06/23 04:43:53;;;;;;;22.55;13.57;;;;;;;16.25;68.20;101011.59;5094125;28;20028;-55
2022/06/23 04:46:40;;;;;;;21.52;12.73;;;;;;;16.22;68.18;100997.13;5094267;28;20042;-56
2022/06/23 04:49:18;;;;;;;23.73;13.80;;;;;;;16.29;68.41;101004.97;5093748;28;20042;-58
2022/06/23 04:51:55;;;;;;;22.33;13.05;;;;;;;16.38;68.29;100990.94;5092380;28;20482;-55
2022/06/23 04:54:26;;;;;;;22.23;13.13;;;;;;;16.44;67.65;100988.75;5109308;28;20032;-54
2022/06/23 04:56:57;;;;;;;22.48;13.00;;;;;;;16.50;67.69;100995.75;5093680;28;20024;-54
2022/06/23 05:00:04;;;;;;;22.48;12.77;;;;;;;16.62;67.26;101008.94;5093730;28;20024;-55
2022/06/23 05:02:47;;;;;;;22.35;13.43;;;;;;;16.76;66.76;101011.44;5069600;28;20044;-55
2022/06/23 05:05:24;;;;;;;21.08;12.95;;;;;;;16.84;66.44;101016.13;5093288;28;20128;-58
2022/06/23 05:07:52;;;;;;;22.73;13.38;;;;;;;16.90;65.99;101011.13;5092900;28;20051;-57
2022/06/23 05:10:23;;;;;;;23.92;13.23;;;;;;;16.99;65.73;101009.09;5093322;28;20028;-57
2022/06/23 05:12:53;;;;;;;21.05;13.02;;;;;;;17.05;65.50;101007.69;5092626;28;20111;-56
2022/06/23 05:15:26;;;;;;;21.75;13.45;;;;;;;17.06;65.15;100995.34;5093399;28;20032;-55
2022/06/23 05:18:04;;;;;;;22.35;12.88;;;;;;;17.17;64.92;101006.91;5093263;28;20160;-53
2022/06/23 05:20:39;;;;;;;20.95;13.43;;;;;;;17.27;64.65;101016.81;5093057;28;20111;-55
2022/06/23 05:23:06;;;;;;;20.98;13.23;;;;;;;17.35;64.86;101007.50;5092966;28;20501;-55
2022/06/23 05:25:36;;;;;;;21.98;13.38;;;;;;;17.42;64.29;101006.91;5092777;28;20047;-56
2022/06/23 05:28:07;;;;;;;21.70;13.63;;;;;;;17.48;64.30;101013.91;5093121;28;20027;-58
2022/06/23 05:30:40;;;;;;;22.92;13.65;;;;;;;17.64;63.78;101014.03;5092798;28;20178;-55
2022/06/23 05:33:18;;;;;;;22.43;13.67;;;;;;;17.70;63.07;101003.41;5092744;28;20118;-56
2022/06/23 05:35:48;;;;;;;23.92;14.68;;;;;;;17.80;63.04;101011.34;5092761;28;20032;-55
2022/06/23 05:38:33;;;;;;;21.15;13.50;;;;;;;17.87;63.17;101000.34;5092216;28;20020;-55
2022/06/23 05:41:03;;;;;;;25.13;15.20;;;;;;;17.94;62.77;100999.75;5091064;28;20448;-56
2022/06/23 05:43:33;;;;;;;23.65;14.07;;;;;;;18.06;62.07;101004.53;5092619;28;20031;-55
2022/06/23 05:46:01;;;;;;;22.45;14.40;;;;;;;18.15;62.25;101007.22;5092859;28;20119;-58
2022/06/23 05:48:38;;;;;;;21.98;14.43;;;;;;;18.26;62.04;100999.94;5092720;28;20031;-57
2022/06/23 05:51:09;;;;;;;22.52;13.75;;;;;;;18.39;61.68;101004.31;5092338;28;20060;-58
2022/06/23 05:53:42;;;;;;;24.35;14.32;;;;;;;18.46;61.51;100991.72;5092407;28;20040;-58
2022/06/23 05:56:17;;;;;;;24.92;14.70;;;;;;;18.63;61.51;100990.56;5093249;28;20173;-57
2022/06/23 05:58:53;;;;;;;26.10;14.50;;;;;;;18.74;61.12;100991.66;5092942;28;20540;-57
2022/06/23 06:01:33;;;;;;;23.17;14.57;;;;;;;18.85;61.23;101009.59;5092714;28;20036;-55
2022/06/23 06:04:05;;;;;;;23.38;15.07;;;;;;;18.95;60.16;101008.28;5083562;28;20036;-56
2022/06/23 06:06:32;;;;;;;23.42;14.45;;;;;;;18.99;59.50;100995.19;5070318;28;20116;-55
2022/06/23 06:11:50;;;;;;;21.98;13.30;;;;;;;19.19;58.76;101003.69;5075048;28;20040;-55
2022/06/23 06:14:21;;;;;;;22.67;13.88;;;;;;;19.27;58.83;101008.31;5072111;28;20056;-56
2022/06/23 06:16:47;;;;;;;20.60;13.43;;;;;;;19.29;58.71;101000.34;5070557;28;20021;-56
2022/06/23 06:19:17;;;;;;;22.98;13.63;;;;;;;19.37;58.87;100997.72;5070440;28;20028;-58
2022/06/23 06:21:44;;;;;;;20.95;13.05;;;;;;;19.55;58.75;100993.34;5070219;28;20048;-57
2022/06/23 06:24:20;;;;;;;22.00;13.48;;;;;;;19.69;57.53;100998.47;5069828;28;20024;-56
2022/06/23 06:26:50;;;;;;;21.83;13.32;;;;;;;19.84;58.02;101002.44;5069536;28;20524;-56
2022/06/23 06:29:22;;;;;;;23.52;13.85;;;;;;;19.90;57.41;101001.00;5069388;28;20062;-56
2022/06/23 06:31:57;;;;;;;21.30;13.07;;;;;;;20.01;56.59;101004.06;5069572;28;20033;-58
2022/06/23 06:34:28;;;;;;;21.73;12.70;;;;;;;20.08;56.27;101007.00;5070245;28;20036;-57
2022/06/23 06:36:53;;;;;;;21.42;13.15;;;;;;;20.16;56.25;101007.16;5068322;28;20485;-55
2022/06/23 06:39:33;;;;;;;23.55;13.45;;;;;;;20.29;56.63;101008.66;5069865;28;20028;-56
2022/06/23 06:42:22;;;;;;;23.60;13.70;;;;;;;20.35;56.79;100997.94;5069638;28;20086;-55
2022/06/23 06:44:51;;;;;;;22.75;13.38;;;;;;;20.33;57.14;100987.06;5069798;28;20028;-52
2022/06/23 06:47:27;;;;;;;22.10;13.40;;;;;;;20.45;56.81;100997.31;5069365;28;20105;-56
2022/06/23 06:49:55;;;;;;;21.15;12.50;;;;;;;20.62;55.88;100998.06;5069602;28;20382;-56
2022/06/23 06:52:20;;;;;;;22.45;13.00;;;;;;;20.77;55.42;100996.38;5069611;28;20093;-56
2022/06/23 06:54:49;;;;;;;21.55;12.48;;;;;;;20.86;55.73;100980.88;5069586;28;20059;-56
2022/06/23 06:57:38;;;;;;;23.77;11.25;;;;;;;21.07;55.99;100987.25;5069593;28;20052;-55
2022/06/23 07:00:08;;;;;;;21.27;13.25;;;;;;;21.14;55.26;100985.38;5069437;28;20047;-56
2022/06/23 07:02:41;;;;;;;21.67;13.57;;;;;;;21.29;54.20;100992.06;5069357;28;20032;-57
2022/06/23 07:05:20;;;;;;;21.48;13.27;;;;;;;21.37;54.69;100997.81;5067473;28;20131;-55
2022/06/23 07:07:51;;;;;;;22.20;12.55;;;;;;;21.44;54.91;100992.31;5069278;28;20456;-48
2022/06/23 07:10:28;;;;;;;21.83;13.00;;;;;;;21.59;54.84;100991.38;5069253;28;20097;-56
2022/06/23 07:13:01;;;;;;;22.05;12.55;;;;;;;21.73;54.88;100998.38;5069265;28;20099;-55
2022/06/23 07:15:30;;;;;;;;;;;;;;;21.84;54.93;100996.53;5069689;28;20032;-57
2022/06/23 07:17:55;;;;;;;21.83;14.52;;;;;;;21.90;54.06;100997.88;5069337;28;19919;-57
2022/06/23 07:20:28;;;;;;;22.37;13.93;;;;;;;21.93;53.46;101005.53;5068864;28;20103;-57
2022/06/23 07:23:00;;;;;;;23.13;13.70;;;;;;;22.00;53.61;100999.19;5068945;28;20290;-57
2022/06/23 07:25:37;;;;;;;20.17;13.13;;;;;;;22.18;54.45;100996.63;5071724;28;20051;-59
2022/06/23 07:28:27;;;;;;;22.40;14.98;;;;;;;22.25;54.22;101007.97;5070897;28;20044;-58
2022/06/23 07:30:58;;;;;;;21.95;14.00;;;;;;;22.39;55.11;101010.16;5071017;28;20032;-58
2022/06/23 07:33:29;;;;;;;21.33;14.45;;;;;;;22.52;54.31;101007.13;5070515;28;20038;-58
2022/06/23 07:36:00;;;;;;;25.42;17.63;;;;;;;22.55;53.72;101000.69;5070517;28;20017;-57
2022/06/23 07:38:32;;;;;;;25.52;15.07;;;;;;;22.67;53.63;101008.91;5070542;28;20082;-57
2022/06/23 07:41:08;;;;;;;22.58;14.80;;;;;;;22.81;53.85;101008.25;5070547;28;20074;-57
2022/06/23 07:43:54;;;;;;;24.85;15.27;;;;;;;22.91;53.04;101006.72;5069240;28;20348;-59
2022/06/23 07:46:20;;;;;;;21.30;14.98;;;;;;;23.00;53.49;101001.56;5070160;28;20095;-59
2022/06/23 07:48:46;;;;;;;23.85;15.23;;;;;;;23.12;53.03;100996.84;5070003;28;20032;-58
2022/06/23 07:51:12;;;;;;;22.73;15.00;;;;;;;23.26;53.10;100999.00;5070748;28;20024;-60
2022/06/23 07:53:42;;;;;;;22.95;15.93;;;;;;;23.29;52.77;100990.56;5070216;28;20035;-58
2022/06/23 07:56:12;;;;;;;25.40;14.88;;;;;;;23.40;53.01;100990.66;5068895;28;20033;-58
2022/06/23 07:58:42;;;;;;;23.52;15.38;;;;;;;23.52;52.95;100989.53;5070283;28;20028;-59
2022/06/23 08:01:14;;;;;;;23.08;15.20;;;;;;;23.67;53.10;100987.63;5069605;28;20120;-57
2022/06/23 08:04:13;;;;;;;23.25;16.13;;;;;;;23.74;52.72;100992.53;5070796;28;20037;-59
2022/06/23 08:06:38;;;;;;;25.52;16.50;;;;;;;23.81;52.11;100990.53;5070125;28;20035;-58
2022/06/23 08:09:20;;;;;;;23.10;15.45;;;;;;;23.93;52.64;100988.59;5070050;28;20020;-58
2022/06/23 08:14:37;;;;;;;24.50;16.40;;;;;;;24.17;51.79;100992.78;5088315;28;20089;-58
2022/06/23 08:17:08;;;;;;;25.40;17.05;;;;;;;24.25;51.98;100993.63;5088454;28;20038;-58
2022/06/23 08:19:43;;;;;;;24.17;17.02;;;;;;;24.25;52.79;100976.66;5088319;28;20051;-58
2022/06/23 08:22:17;;;;;;;23.90;16.58;;;;;;;24.38;52.29;100979.94;5078822;28;20351;-58
2022/06/23 08:24:45;;;;;;;24.40;17.17;;;;;;;24.49;51.93;100983.63;5072771;28;20154;-58
2022/06/23 08:27:16;;;;;;;24.42;16.90;;;;;;;24.55;52.36;100967.06;5085826;28;20048;-57
2022/06/23 08:29:46;;;;;;;25.33;17.33;;;;;;;24.63;51.51;100968.69;5069190;28;20037;-57
2022/06/23 08:32:13;;;;;;;23.02;16.92;;;;;;;24.76;51.62;100984.09;5066732;28;20503;-57
2022/06/23 08:34:45;;;;;;;25.75;16.67;;;;;;;24.83;51.43;100979.69;5077090;28;20036;-57
2022/06/23 08:37:21;;;;;;;22.92;15.60;;;;;;;25.00;52.41;100978.88;5088495;28;20153;-57
2022/06/23 08:40:14;;;;;;;25.17;16.98;;;;;;;25.11;51.76;100986.59;5088287;28;20103;-58
2022/06/23 08:42:58;;;;;;;25.52;16.88;;;;;;;25.14;51.41;100977.25;5086873;28;20614;-58
2022/06/23 08:45:38;;;;;;;;;;;;;;;25.29;52.04;100984.56;5088804;28;20109;-57
2022/06/23 08:48:11;;;;;;;23.70;14.80;;;;;;;25.33;51.13;100984.56;5088128;28;19923;-59
2022/06/23 08:50:54;;;;;;;23.98;15.13;;;;;;;25.43;50.84;100978.09;5086378;28;20470;-57
2022/06/23 08:53:26;;;;;;;23.52;15.48;;;;;;;25.58;50.30;100983.75;5087964;28;20024;-58
2022/06/23 08:56:02;;;;;;;25.25;16.48;;;;;;;25.63;50.64;100981.31;5088279;28;20113;-59
2022/06/23 08:58:41;;;;;;;22.40;14.98;;;;;;;25.81;50.94;100981.28;5088353;28;20105;-57
2022/06/23 09:01:23;;;;;;;23.63;16.27;;;;;;;25.93;49.87;100982.84;5088334;28;20074;-57
2022/06/23 09:03:57;;;;;;;26.23;16.38;;;;;;;25.89;49.76;100970.72;5088644;28;20032;-58
2022/06/23 09:06:35;;;;;;;23.60;14.77;;;;;;;26.05;50.21;100975.13;5085623;28;20027;-57
2022/06/23 09:09:33;;;;;;;25.40;15.85;;;;;;;26.11;49.47;100965.84;5068221;28;20036;-58
2022/06/23 09:12:26;;;;;;;25.83;15.63;;;;;;;26.23;50.00;100966.56;5046440;28;20471;-58
2022/06/23 09:15:28;;;;;;;25.30;15.20;;;;;;;26.22;49.03;100960.09;5071491;28;20028;-58
2022/06/23 09:18:07;;;;;;;24.85;14.98;;;;;;;26.28;49.66;100955.59;4989511;28;20065;-57
2022/06/23 09:20:55;;;;;;;24.50;14.57;;;;;;;26.44;49.82;100948.66;5062548;28;20044;-57
2022/06/23 09:23:50;;;;;;;21.60;13.35;;;;;;;26.62;49.27;100955.03;5071614;28;20158;-59
2022/06/23 09:26:23;;;;;;;23.33;14.30;;;;;;;26.77;48.87;100949.28;5071220;28;20056;-58
2022/06/23 09:28:49;;;;;;;;;;;;;;;26.89;48.82;100959.31;5071997;28;20071;-57
2022/06/23 09:31:20;;;;;;;23.15;14.05;;;;;;;26.85;48.24;100938.69;5071174;28;20644;-58
2022/06/23 09:33:57;;;;;;;23.25;14.27;;;;;;;26.89;48.35;100954.47;5071200;28;20025;-56
2022/06/23 09:36:46;;;;;;;23.52;13.77;;;;;;;27.01;48.33;100949.50;5071384;28;20036;-59
2022/06/23 09:39:36;;;;;;;22.33;12.82;;;;;;;27.19;48.24;100953.00;5071191;28;20486;-56
2022/06/23 09:42:32;;;;;;;21.98;13.65;;;;;;;27.11;47.82;100942.94;5071107;28;20028;-58
2022/06/23 09:45:19;;;;;;;20.77;12.63;;;;;;;27.23;48.40;100948.09;5069549;28;20063;-58
2022/06/23 09:48:08;;;;;;;22.80;12.63;;;;;;;27.49;47.98;100942.19;5070945;28;20101;-58
2022/06/23 09:51:04;;;;;;;19.30;11.68;;;;;;;27.71;47.01;100942.75;5069239;28;20107;-57
2022/06/23 09:53:55;;;;;;;23.83;13.75;;;;;;;27.68;47.28;100923.72;5071212;28;20016;-57
2022/06/23 09:56:51;;;;;;;22.80;13.23;;;;;;;27.93;46.90;100934.00;5071104;28;20056;-56
2022/06/23 09:59:46;;;;;;;19.23;11.10;;;;;;;28.14;46.15;100933.75;5071110;28;20111;-55
2022/06/23 10:02:31;;;;;;;19.33;9.70;;;;;;;28.23;45.06;100929.59;5071071;28;20058;-57
2022/06/23 10:05:16;;;;;;;17.20;9.00;;;;;;;28.42;44.71;100939.47;5071214;28;20036;-57
2022/06/23 10:07:51;;;;;;;16.70;9.02;;;;;;;28.60;44.15;100936.38;5070840;28;20111;-57
2022/06/23 10:10:28;;;;;;;19.00;9.52;;;;;;;28.68;43.34;100935.03;5070823;28;20052;-57
2022/06/23 10:13:09;;;;;;;20.15;9.32;;;;;;;28.79;43.46;100935.69;5070562;28;20068;-57
2022/06/23 10:15:52;;;;;;;17.98;8.93;;;;;;;28.90;43.75;100929.81;5070569;28;20040;-57
2022/06/23 10:18:31;;;;;;;18.30;9.30;;;;;;;29.02;42.79;100933.28;5070562;28;20394;-57
2022/06/23 10:21:11;;;;;;;17.17;8.93;;;;;;;29.06;43.54;100929.16;5070786;28;20051;-57
2022/06/23 10:24:23;;;;;;;18.35;9.60;;;;;;;29.19;43.66;100926.47;5069288;28;20077;-56
2022/06/23 10:27:22;;;;;;;21.17;9.73;;;;;;;29.33;43.35;100927.50;5056271;28;20048;-55
2022/06/23 10:30:13;;;;;;;18.38;9.52;;;;;;;29.21;43.38;100923.19;5086325;28;20028;-58
2022/06/23 10:33:04;;;;;;;18.98;9.65;;;;;;;29.35;43.47;100933.53;5089564;28;20063;-56
2022/06/23 10:36:06;;;;;;;17.67;9.55;;;;;;;29.30;43.72;100922.63;5089882;28;20351;-57
2022/06/23 10:38:50;;;;;;;19.65;9.32;;;;;;;29.24;43.42;100925.97;5089989;28;20036;-58
2022/06/23 10:41:45;;;;;;;19.70;9.75;;;;;;;29.39;44.51;100908.66;5090081;28;20521;-57
2022/06/23 10:44:29;;;;;;;20.52;10.10;;;;;;;29.49;44.21;100912.53;5090024;28;20107;-58
2022/06/23 10:47:14;;;;;;;19.90;9.55;;;;;;;29.78;43.96;100909.09;5082826;28;20048;-58
2022/06/23 10:49:59;;;;;;;19.92;9.32;;;;;;;29.84;43.30;100896.75;5078015;28;20082;-57
2022/06/23 10:52:35;;;;;;;20.88;10.13;;;;;;;30.03;43.95;100902.91;5081885;28;20439;-56
2022/06/23 10:55:22;;;;;;;20.80;10.40;;;;;;;30.12;44.14;100894.56;5082014;28;20085;-57
2022/06/23 10:58:26;;;;;;;19.35;10.85;;;;;;;30.25;44.31;100896.75;5082161;28;20099;-56
2022/06/23 11:01:25;;;;;;;21.45;10.68;;;;;;;30.07;43.89;100895.09;5081022;28;20028;-57
2022/06/23 11:04:04;;;;;;;21.75;11.20;;;;;;;29.91;44.50;100897.84;5080515;28;20052;-57
2022/06/23 11:06:57;;;;;;;21.67;11.02;;;;;;;30.03;44.44;100894.34;5081849;28;20107;-56
2022/06/23 11:09:25;;;;;;;18.73;10.38;;;;;;;30.14;43.11;100902.66;5082117;28;20040;-58
2022/06/23 11:12:07;;;;;;;20.75;10.70;;;;;;;30.27;42.89;100902.81;5080598;28;20146;-57
2022/06/23 11:15:01;;;;;;;21.05;10.32;;;;;;;30.40;42.89;100892.28;5080885;28;20021;-58
2022/06/23 11:17:57;;;;;;;20.80;11.23;;;;;;;30.32;43.03;100890.84;5081893;28;20034;-57
2022/06/23 11:21:00;;;;;;;20.23;11.00;;;;;;;30.43;43.07;100887.75;5082118;28;20023;-57
2022/06/23 11:23:39;;;;;;;21.33;11.60;;;;;;;30.51;43.34;100889.22;5079338;28;20127;-57
2022/06/23 11:26:11;;;;;;;18.85;10.90;;;;;;;30.51;42.12;100889.22;5076660;28;20135;-56
2022/06/23 11:28:42;;;;;;;19.73;10.95;;;;;;;30.47;41.10;100885.63;5079676;28;20028;-58
2022/06/23 11:31:42;;;;;;;19.20;10.80;;;;;;;30.54;42.24;100891.19;5079914;28;20096;-58
2022/06/23 11:34:23;;;;;;;20.58;10.95;;;;;;;30.56;42.06;100882.97;5081888;28;20107;-58
2022/06/23 11:36:56;;;;;;;20.52;11.35;;;;;;;30.77;42.59;100886.56;5081901;28;20054;-58
2022/06/23 11:39:43;;;;;;;22.50;11.35;;;;;;;30.71;41.87;100877.72;5081436;28;20021;-58
2022/06/23 11:42:33;;;;;;;20.88;10.98;;;;;;;30.78;42.47;100883.25;5082228;28;20020;-57
2022/06/23 11:45:21;;;;;;;19.48;11.00;;;;;;;30.85;41.51;100882.28;5081460;28;20477;-58
2022/06/23 11:48:07;;;;;;;19.40;10.48;;;;;;;30.92;41.53;100878.44;5082099;28;20031;-57
2022/06/23 11:50:42;;;;;;;20.00;10.70;;;;;;;30.92;41.75;100870.66;5080343;28;20032;-57
2022/06/23 11:53:16;;;;;;;22.63;11.07;;;;;;;31.02;40.69;100870.81;5079360;28;20024;-59
2022/06/23 11:55:51;;;;;;;19.65;10.27;;;;;;;31.01;40.95;100866.34;5080678;28;20024;-58
2022/06/23 11:58:44;;;;;;;22.05;10.75;;;;;;;31.15;41.23;100860.31;5080572;28;20039;-57
2022/06/23 12:01:20;;;;;;;21.70;11.30;;;;;;;31.20;40.42;100868.31;5079741;28;20490;-58
2022/06/23 12:04:17;;;;;;;21.33;10.45;;;;;;;31.16;40.57;100867.63;5079037;28;20044;-58
2022/06/23 12:07:13;;;;;;;19.58;10.18;;;;;;;30.87;40.88;100864.69;5080919;28;20047;-58
2022/06/23 12:09:48;;;;;;;19.75;9.85;;;;;;;31.01;39.85;100863.50;5081149;28;20016;-59
2022/06/23 12:12:14;;;;;;;19.33;9.40;;;;;;;31.08;40.36;100849.84;5078485;28;20028;-59